sensor_id;sensor_type;location;lat;lon;timestamp;temperature;humidity
75387;DHT22;63966;47.914;22.266;2023-07-09T00:00:55;14.26;85.61
75387;DHT22;63966;47.914;22.266;2023-07-09T00:03:59;14.20;86.40
75387;DHT22;63966;47.914;22.266;2023-07-09T00:07:04;14.15;86.57
75387;DHT22;63966;47.914;22.266;2023-07-09T00:10:17;14.12;86.68
75387;DHT22;63966;47.914;22.266;2023-07-09T00:13:22;14.09;87.39
75387;DHT22;63966;47.914;22.266;2023-07-09T00:16:26;14.06;87.11
75387;DHT22;63966;47.914;22.266;2023-07-09T00:19:30;14.06;86.87
75387;DHT22;63966;47.914;22.266;2023-07-09T00:22:33;14.02;87.37
75387;DHT22;63966;47.914;22.266;2023-07-09T00:25:37;14.02;87.00
75387;DHT22;63966;47.914;22.266;2023-07-09T00:28:41;14.02;87.46
75387;DHT22;63966;47.914;22.266;2023-07-09T00:31:45;13.97;87.18
75387;DHT22;63966;47.914;22.266;2023-07-09T00:34:49;13.90;88.38
75387;DHT22;63966;47.914;22.266;2023-07-09T00:37:53;13.82;87.52
75387;DHT22;63966;47.914;22.266;2023-07-09T00:41:03;13.78;87.43
75387;DHT22;63966;47.914;22.266;2023-07-09T00:44:33;13.68;87.16
75387;DHT22;63966;47.914;22.266;2023-07-09T00:48:01;13.64;86.67
75387;DHT22;63966;47.914;22.266;2023-07-09T00:51:14;13.58;86.86
75387;DHT22;63966;47.914;22.266;2023-07-09T00:54:36;13.51;87.10
75387;DHT22;63966;47.914;22.266;2023-07-09T00:57:41;13.51;87.12
75387;DHT22;63966;47.914;22.266;2023-07-09T01:01:06;13.53;87.60
75387;DHT22;63966;47.914;22.266;2023-07-09T01:04:12;13.54;87.72
75387;DHT22;63966;47.914;22.266;2023-07-09T01:07:17;13.46;88.08
75387;DHT22;63966;47.914;22.266;2023-07-09T01:10:24;13.46;88.72
75387;DHT22;63966;47.914;22.266;2023-07-09T01:13:29;13.46;88.53
75387;DHT22;63966;47.914;22.266;2023-07-09T01:16:41;13.50;88.61
75387;DHT22;63966;47.914;22.266;2023-07-09T01:19:50;13.47;89.03
75387;DHT22;63966;47.914;22.266;2023-07-09T01:22:54;13.48;89.46
75387;DHT22;63966;47.914;22.266;2023-07-09T01:25:58;13.43;88.93
75387;DHT22;63966;47.914;22.266;2023-07-09T01:29:01;13.40;88.96
75387;DHT22;63966;47.914;22.266;2023-07-09T01:32:06;13.27;88.92
75387;DHT22;63966;47.914;22.266;2023-07-09T01:35:10;13.23;88.59
75387;DHT22;63966;47.914;22.266;2023-07-09T01:38:14;13.17;88.50
75387;DHT22;63966;47.914;22.266;2023-07-09T01:41:18;13.13;88.67
75387;DHT22;63966;47.914;22.266;2023-07-09T01:44:22;13.06;88.74
75387;DHT22;63966;47.914;22.266;2023-07-09T01:47:26;13.06;88.92
75387;DHT22;63966;47.914;22.266;2023-07-09T01:50:30;13.03;89.71
75387;DHT22;63966;47.914;22.266;2023-07-09T01:53:34;13.00;89.25
75387;DHT22;63966;47.914;22.266;2023-07-09T01:56:39;13.02;89.56
75387;DHT22;63966;47.914;22.266;2023-07-09T01:59:43;12.95;88.41
75387;DHT22;63966;47.914;22.266;2023-07-09T02:02:47;12.89;88.46
75387;DHT22;63966;47.914;22.266;2023-07-09T02:05:55;12.81;88.06
75387;DHT22;63966;47.914;22.266;2023-07-09T02:08:58;12.79;88.71
75387;DHT22;63966;47.914;22.266;2023-07-09T02:12:02;12.81;88.83
75387;DHT22;63966;47.914;22.266;2023-07-09T02:15:06;12.73;89.21
75387;DHT22;63966;47.914;22.266;2023-07-09T02:18:11;12.73;89.46
75387;DHT22;63966;47.914;22.266;2023-07-09T02:21:14;12.69;89.33
75387;DHT22;63966;47.914;22.266;2023-07-09T02:24:18;12.69;88.55
75387;DHT22;63966;47.914;22.266;2023-07-09T02:27:21;12.65;87.99
75387;DHT22;63966;47.914;22.266;2023-07-09T02:30:27;12.64;87.35
75387;DHT22;63966;47.914;22.266;2023-07-09T02:33:31;12.64;87.96
75387;DHT22;63966;47.914;22.266;2023-07-09T02:36:36;12.61;87.63
75387;DHT22;63966;47.914;22.266;2023-07-09T02:39:39;12.64;88.50
75387;DHT22;63966;47.914;22.266;2023-07-09T02:42:43;12.64;87.34
75387;DHT22;63966;47.914;22.266;2023-07-09T02:45:46;12.64;87.93
75387;DHT22;63966;47.914;22.266;2023-07-09T02:48:49;12.68;87.87
75387;DHT22;63966;47.914;22.266;2023-07-09T02:51:53;12.66;88.02
75387;DHT22;63966;47.914;22.266;2023-07-09T02:54:56;12.71;88.66
75387;DHT22;63966;47.914;22.266;2023-07-09T02:58:00;12.78;88.56
75387;DHT22;63966;47.914;22.266;2023-07-09T03:01:03;12.82;88.05
75387;DHT22;63966;47.914;22.266;2023-07-09T03:04:08;12.92;88.47
75387;DHT22;63966;47.914;22.266;2023-07-09T03:07:12;12.96;87.36
75387;DHT22;63966;47.914;22.266;2023-07-09T03:10:15;13.07;87.64
75387;DHT22;63966;47.914;22.266;2023-07-09T03:13:19;13.23;86.84
75387;DHT22;63966;47.914;22.266;2023-07-09T03:16:22;13.33;86.62
75387;DHT22;63966;47.914;22.266;2023-07-09T03:19:26;13.47;87.19
75387;DHT22;63966;47.914;22.266;2023-07-09T03:22:29;13.71;85.94
75387;DHT22;63966;47.914;22.266;2023-07-09T03:25:32;14.16;84.94
75387;DHT22;63966;47.914;22.266;2023-07-09T03:28:36;14.88;82.16
75387;DHT22;63966;47.914;22.266;2023-07-09T03:31:40;15.22;81.12
75387;DHT22;63966;47.914;22.266;2023-07-09T03:34:43;16.04;78.70
75387;DHT22;63966;47.914;22.266;2023-07-09T03:37:46;17.04;74.72
75387;DHT22;63966;47.914;22.266;2023-07-09T03:40:51;17.72;71.82
75387;DHT22;63966;47.914;22.266;2023-07-09T03:43:55;18.17;70.76
75387;DHT22;63966;47.914;22.266;2023-07-09T03:46:59;18.96;68.01
75387;DHT22;63966;47.914;22.266;2023-07-09T03:50:02;19.72;65.74
75387;DHT22;63966;47.914;22.266;2023-07-09T03:53:06;19.98;64.33
75387;DHT22;63966;47.914;22.266;2023-07-09T03:56:09;20.36;64.85
75387;DHT22;63966;47.914;22.266;2023-07-09T03:59:12;21.24;61.46
75387;DHT22;63966;47.914;22.266;2023-07-09T04:02:16;21.91;59.26
75387;DHT22;63966;47.914;22.266;2023-07-09T04:05:19;22.39;59.41
75387;DHT22;63966;47.914;22.266;2023-07-09T04:08:22;23.17;57.66
75387;DHT22;63966;47.914;22.266;2023-07-09T04:11:26;23.81;55.14
75387;DHT22;63966;47.914;22.266;2023-07-09T04:14:29;24.10;54.36
75387;DHT22;63966;47.914;22.266;2023-07-09T04:17:33;24.51;54.26
75387;DHT22;63966;47.914;22.266;2023-07-09T04:20:37;24.13;55.64
75387;DHT22;63966;47.914;22.266;2023-07-09T04:23:40;23.74;55.68
75387;DHT22;63966;47.914;22.266;2023-07-09T04:26:44;22.82;57.35
75387;DHT22;63966;47.914;22.266;2023-07-09T04:29:48;22.30;59.35
75387;DHT22;63966;47.914;22.266;2023-07-09T04:32:51;22.80;58.10
75387;DHT22;63966;47.914;22.266;2023-07-09T04:35:55;23.17;57.60
75387;DHT22;63966;47.914;22.266;2023-07-09T04:38:58;22.70;58.06
75387;DHT22;63966;47.914;22.266;2023-07-09T04:42:02;23.66;55.99
75387;DHT22;63966;47.914;22.266;2023-07-09T04:45:07;24.13;54.90
75387;DHT22;63966;47.914;22.266;2023-07-09T04:48:12;23.99;55.97
75387;DHT22;63966;47.914;22.266;2023-07-09T04:51:15;23.86;56.79
75387;DHT22;63966;47.914;22.266;2023-07-09T04:54:19;24.41;56.16
75387;DHT22;63966;47.914;22.266;2023-07-09T04:57:22;25.59;53.22
75387;DHT22;63966;47.914;22.266;2023-07-09T05:00:26;26.26;50.55
75387;DHT22;63966;47.914;22.266;2023-07-09T05:03:29;26.12;51.27
75387;DHT22;63966;47.914;22.266;2023-07-09T05:06:33;26.06;51.00
75387;DHT22;63966;47.914;22.266;2023-07-09T05:09:37;26.39;50.57
75387;DHT22;63966;47.914;22.266;2023-07-09T05:12:51;26.82;48.99
75387;DHT22;63966;47.914;22.266;2023-07-09T05:15:55;27.49;47.99
75387;DHT22;63966;47.914;22.266;2023-07-09T05:18:59;27.79;45.99
75387;DHT22;63966;47.914;22.266;2023-07-09T05:22:02;27.56;47.08
75387;DHT22;63966;47.914;22.266;2023-07-09T05:25:06;28.04;46.67
75387;DHT22;63966;47.914;22.266;2023-07-09T05:28:09;28.78;45.87
75387;DHT22;63966;47.914;22.266;2023-07-09T05:31:13;28.83;44.68
75387;DHT22;63966;47.914;22.266;2023-07-09T05:34:16;28.96;44.03
75387;DHT22;63966;47.914;22.266;2023-07-09T05:37:19;29.19;45.83
75387;DHT22;63966;47.914;22.266;2023-07-09T05:40:23;29.31;44.18
75387;DHT22;63966;47.914;22.266;2023-07-09T05:43:26;29.47;43.40
75387;DHT22;63966;47.914;22.266;2023-07-09T05:46:35;30.44;43.00
75387;DHT22;63966;47.914;22.266;2023-07-09T05:49:39;30.36;41.51
75387;DHT22;63966;47.914;22.266;2023-07-09T05:52:43;30.44;40.81
75387;DHT22;63966;47.914;22.266;2023-07-09T05:55:46;29.80;40.84
75387;DHT22;63966;47.914;22.266;2023-07-09T05:58:50;30.47;42.35
75387;DHT22;63966;47.914;22.266;2023-07-09T06:01:53;30.59;40.80
75387;DHT22;63966;47.914;22.266;2023-07-09T06:04:57;30.49;41.91
75387;DHT22;63966;47.914;22.266;2023-07-09T06:08:02;30.84;40.22
75387;DHT22;63966;47.914;22.266;2023-07-09T06:11:05;31.10;40.28
75387;DHT22;63966;47.914;22.266;2023-07-09T06:14:10;31.43;38.89
75387;DHT22;63966;47.914;22.266;2023-07-09T06:17:14;31.27;38.55
75387;DHT22;63966;47.914;22.266;2023-07-09T06:20:17;31.87;38.78
75387;DHT22;63966;47.914;22.266;2023-07-09T06:23:21;32.09;37.79
75387;DHT22;63966;47.914;22.266;2023-07-09T06:26:25;32.38;38.65
75387;DHT22;63966;47.914;22.266;2023-07-09T06:29:28;32.48;36.85
75387;DHT22;63966;47.914;22.266;2023-07-09T06:32:32;32.35;37.85
75387;DHT22;63966;47.914;22.266;2023-07-09T06:35:35;32.04;38.73
75387;DHT22;63966;47.914;22.266;2023-07-09T06:38:39;32.55;37.44
75387;DHT22;63966;47.914;22.266;2023-07-09T06:41:42;32.96;37.52
75387;DHT22;63966;47.914;22.266;2023-07-09T06:45:06;34.31;35.60
75387;DHT22;63966;47.914;22.266;2023-07-09T06:48:09;34.66;34.87
75387;DHT22;63966;47.914;22.266;2023-07-09T06:51:13;34.16;34.59
75387;DHT22;63966;47.914;22.266;2023-07-09T06:54:17;34.55;36.73
75387;DHT22;63966;47.914;22.266;2023-07-09T06:57:20;35.59;32.04
75387;DHT22;63966;47.914;22.266;2023-07-09T07:00:24;35.86;32.64
75387;DHT22;63966;47.914;22.266;2023-07-09T07:03:27;36.55;32.11
75387;DHT22;63966;47.914;22.266;2023-07-09T07:06:31;36.30;30.68
75387;DHT22;63966;47.914;22.266;2023-07-09T07:09:34;36.55;34.74
75387;DHT22;63966;47.914;22.266;2023-07-09T07:12:46;36.09;29.64
75387;DHT22;63966;47.914;22.266;2023-07-09T07:15:50;34.91;32.47
75387;DHT22;63966;47.914;22.266;2023-07-09T07:18:53;35.35;30.56
75387;DHT22;63966;47.914;22.266;2023-07-09T07:21:56;35.93;31.16
75387;DHT22;63966;47.914;22.266;2023-07-09T07:25:00;36.15;31.22
75387;DHT22;63966;47.914;22.266;2023-07-09T07:28:03;36.07;32.85
75387;DHT22;63966;47.914;22.266;2023-07-09T07:31:08;36.29;31.30
75387;DHT22;63966;47.914;22.266;2023-07-09T07:34:12;36.65;30.44
75387;DHT22;63966;47.914;22.266;2023-07-09T07:37:17;37.59;30.12
75387;DHT22;63966;47.914;22.266;2023-07-09T07:40:22;37.50;28.75
75387;DHT22;63966;47.914;22.266;2023-07-09T07:43:26;37.61;29.86
75387;DHT22;63966;47.914;22.266;2023-07-09T07:46:29;37.54;29.77
75387;DHT22;63966;47.914;22.266;2023-07-09T07:49:36;37.77;28.81
75387;DHT22;63966;47.914;22.266;2023-07-09T07:52:40;38.15;29.83
75387;DHT22;63966;47.914;22.266;2023-07-09T07:55:43;38.25;30.12
75387;DHT22;63966;47.914;22.266;2023-07-09T07:58:47;38.96;31.10
75387;DHT22;63966;47.914;22.266;2023-07-09T08:01:50;38.49;28.47
75387;DHT22;63966;47.914;22.266;2023-07-09T08:04:54;38.87;29.22
75387;DHT22;63966;47.914;22.266;2023-07-09T08:07:57;38.56;28.12
75387;DHT22;63966;47.914;22.266;2023-07-09T08:11:03;38.14;26.89
75387;DHT22;63966;47.914;22.266;2023-07-09T08:14:09;38.42;27.50
75387;DHT22;63966;47.914;22.266;2023-07-09T08:17:12;38.15;28.37
75387;DHT22;63966;47.914;22.266;2023-07-09T08:20:16;38.21;28.16
75387;DHT22;63966;47.914;22.266;2023-07-09T08:23:19;38.12;26.22
75387;DHT22;63966;47.914;22.266;2023-07-09T08:26:23;38.11;27.84
75387;DHT22;63966;47.914;22.266;2023-07-09T08:29:27;38.55;27.62
75387;DHT22;63966;47.914;22.266;2023-07-09T08:32:30;38.18;27.10
75387;DHT22;63966;47.914;22.266;2023-07-09T08:35:34;38.36;26.39
75387;DHT22;63966;47.914;22.266;2023-07-09T08:38:39;38.39;27.52
75387;DHT22;63966;47.914;22.266;2023-07-09T08:41:57;38.44;25.70
75387;DHT22;63966;47.914;22.266;2023-07-09T08:48:38;37.64;28.03
75387;DHT22;63966;47.914;22.266;2023-07-09T08:51:44;37.16;27.60
75387;DHT22;63966;47.914;22.266;2023-07-09T08:54:49;36.57;31.56
75387;DHT22;63966;47.914;22.266;2023-07-09T08:58:17;34.39;29.71
75387;DHT22;63966;47.914;22.266;2023-07-09T09:01:37;32.68;32.05
75387;DHT22;63966;47.914;22.266;2023-07-09T09:04:43;31.87;33.80
75387;DHT22;63966;47.914;22.266;2023-07-09T09:07:54;31.72;34.40
75387;DHT22;63966;47.914;22.266;2023-07-09T09:14:39;30.83;33.67
75387;DHT22;63966;47.914;22.266;2023-07-09T09:17:43;30.92;34.14
75387;DHT22;63966;47.914;22.266;2023-07-09T09:24:35;30.69;32.52
75387;DHT22;63966;47.914;22.266;2023-07-09T09:27:39;30.91;34.08
75387;DHT22;63966;47.914;22.266;2023-07-09T09:30:43;30.37;34.73
75387;DHT22;63966;47.914;22.266;2023-07-09T09:33:48;30.64;37.75
75387;DHT22;63966;47.914;22.266;2023-07-09T09:36:51;31.08;37.17
75387;DHT22;63966;47.914;22.266;2023-07-09T09:39:55;31.00;37.29
75387;DHT22;63966;47.914;22.266;2023-07-09T09:43:19;30.59;36.46
75387;DHT22;63966;47.914;22.266;2023-07-09T09:46:26;30.33;33.28
75387;DHT22;63966;47.914;22.266;2023-07-09T09:49:42;30.29;33.85
75387;DHT22;63966;47.914;22.266;2023-07-09T09:52:47;30.69;35.42
75387;DHT22;63966;47.914;22.266;2023-07-09T09:55:55;30.53;34.75
75387;DHT22;63966;47.914;22.266;2023-07-09T09:58:59;30.39;34.90
75387;DHT22;63966;47.914;22.266;2023-07-09T10:02:15;30.33;33.52
75387;DHT22;63966;47.914;22.266;2023-07-09T10:05:31;30.05;31.94
75387;DHT22;63966;47.914;22.266;2023-07-09T10:15:34;30.13;34.27
75387;DHT22;63966;47.914;22.266;2023-07-09T10:22:04;30.43;34.24
75387;DHT22;63966;47.914;22.266;2023-07-09T10:25:38;30.53;33.72
75387;DHT22;63966;47.914;22.266;2023-07-09T10:38:59;30.23;34.97
75387;DHT22;63966;47.914;22.266;2023-07-09T10:42:04;30.57;36.37
75387;DHT22;63966;47.914;22.266;2023-07-09T10:45:20;30.49;34.75
75387;DHT22;63966;47.914;22.266;2023-07-09T10:48:38;30.11;35.36
75387;DHT22;63966;47.914;22.266;2023-07-09T10:51:52;29.97;34.24
75387;DHT22;63966;47.914;22.266;2023-07-09T11:05:23;29.80;36.36
75387;DHT22;63966;47.914;22.266;2023-07-09T11:08:37;30.00;33.20
75387;DHT22;63966;47.914;22.266;2023-07-09T11:11:45;29.98;33.67
75387;DHT22;63966;47.914;22.266;2023-07-09T11:18:05;29.86;35.86
75387;DHT22;63966;47.914;22.266;2023-07-09T11:21:17;29.77;35.86
75387;DHT22;63966;47.914;22.266;2023-07-09T11:24:48;29.70;35.15
75387;DHT22;63966;47.914;22.266;2023-07-09T11:28:03;29.86;36.65
75387;DHT22;63966;47.914;22.266;2023-07-09T11:31:40;29.74;35.74
75387;DHT22;63966;47.914;22.266;2023-07-09T11:34:46;29.73;35.03
75387;DHT22;63966;47.914;22.266;2023-07-09T11:37:50;29.46;33.88
75387;DHT22;63966;47.914;22.266;2023-07-09T11:40:57;29.61;32.24
75387;DHT22;63966;47.914;22.266;2023-07-09T11:44:10;29.54;33.04
75387;DHT22;63966;47.914;22.266;2023-07-09T11:47:55;29.73;34.41
75387;DHT22;63966;47.914;22.266;2023-07-09T11:51:13;29.78;36.84
75387;DHT22;63966;47.914;22.266;2023-07-09T11:54:18;29.67;34.68
75387;DHT22;63966;47.914;22.266;2023-07-09T11:57:22;29.70;34.06
75387;DHT22;63966;47.914;22.266;2023-07-09T12:00:38;29.74;34.99
75387;DHT22;63966;47.914;22.266;2023-07-09T12:03:44;29.80;31.80
75387;DHT22;63966;47.914;22.266;2023-07-09T12:06:48;29.37;31.76
75387;DHT22;63966;47.914;22.266;2023-07-09T12:09:51;29.36;32.27
75387;DHT22;63966;47.914;22.266;2023-07-09T12:12:58;29.50;32.88
75387;DHT22;63966;47.914;22.266;2023-07-09T12:16:01;29.45;34.20
75387;DHT22;63966;47.914;22.266;2023-07-09T12:19:05;29.43;34.71
75387;DHT22;63966;47.914;22.266;2023-07-09T12:22:19;29.27;34.18
75387;DHT22;63966;47.914;22.266;2023-07-09T12:25:25;29.29;37.85
75387;DHT22;63966;47.914;22.266;2023-07-09T12:28:30;29.33;34.83
75387;DHT22;63966;47.914;22.266;2023-07-09T12:31:33;29.27;34.63
75387;DHT22;63966;47.914;22.266;2023-07-09T12:34:37;29.43;35.21
75387;DHT22;63966;47.914;22.266;2023-07-09T12:37:43;29.40;35.28
75387;DHT22;63966;47.914;22.266;2023-07-09T12:40:48;29.45;35.29
75387;DHT22;63966;47.914;22.266;2023-07-09T12:43:54;29.30;33.61
75387;DHT22;63966;47.914;22.266;2023-07-09T12:46:57;29.23;33.58
75387;DHT22;63966;47.914;22.266;2023-07-09T12:50:14;29.33;35.47
75387;DHT22;63966;47.914;22.266;2023-07-09T12:53:20;29.49;36.63
75387;DHT22;63966;47.914;22.266;2023-07-09T12:56:24;29.50;33.46
75387;DHT22;63966;47.914;22.266;2023-07-09T12:59:38;29.37;34.77
75387;DHT22;63966;47.914;22.266;2023-07-09T13:02:42;29.34;34.61
75387;DHT22;63966;47.914;22.266;2023-07-09T13:05:59;29.31;36.07
75387;DHT22;63966;47.914;22.266;2023-07-09T13:09:11;29.31;34.32
75387;DHT22;63966;47.914;22.266;2023-07-09T13:12:17;29.26;35.78
75387;DHT22;63966;47.914;22.266;2023-07-09T13:15:38;29.43;35.97
75387;DHT22;63966;47.914;22.266;2023-07-09T13:18:41;29.60;35.96
75387;DHT22;63966;47.914;22.266;2023-07-09T13:21:45;29.68;36.35
75387;DHT22;63966;47.914;22.266;2023-07-09T13:24:49;29.70;34.92
75387;DHT22;63966;47.914;22.266;2023-07-09T13:27:52;29.51;33.24
75387;DHT22;63966;47.914;22.266;2023-07-09T13:30:59;29.42;33.94
75387;DHT22;63966;47.914;22.266;2023-07-09T13:34:19;29.30;35.33
75387;DHT22;63966;47.914;22.266;2023-07-09T13:37:23;29.34;32.34
75387;DHT22;63966;47.914;22.266;2023-07-09T13:40:26;29.26;34.00
75387;DHT22;63966;47.914;22.266;2023-07-09T13:43:33;29.25;35.09
75387;DHT22;63966;47.914;22.266;2023-07-09T13:46:37;29.23;33.88
75387;DHT22;63966;47.914;22.266;2023-07-09T13:49:42;29.09;34.05
75387;DHT22;63966;47.914;22.266;2023-07-09T13:52:46;29.19;33.78
75387;DHT22;63966;47.914;22.266;2023-07-09T13:55:50;29.16;33.49
75387;DHT22;63966;47.914;22.266;2023-07-09T13:58:53;29.17;34.01
75387;DHT22;63966;47.914;22.266;2023-07-09T14:01:58;29.10;35.49
75387;DHT22;63966;47.914;22.266;2023-07-09T14:05:05;29.02;34.21
75387;DHT22;63966;47.914;22.266;2023-07-09T14:08:09;29.09;34.07
75387;DHT22;63966;47.914;22.266;2023-07-09T14:11:17;29.03;35.06
75387;DHT22;63966;47.914;22.266;2023-07-09T14:14:28;29.22;34.16
75387;DHT22;63966;47.914;22.266;2023-07-09T14:17:33;29.10;34.73
75387;DHT22;63966;47.914;22.266;2023-07-09T14:20:37;29.17;34.47
75387;DHT22;63966;47.914;22.266;2023-07-09T14:23:40;29.03;35.14
75387;DHT22;63966;47.914;22.266;2023-07-09T14:26:44;29.09;37.08
75387;DHT22;63966;47.914;22.266;2023-07-09T14:29:47;29.10;36.05
75387;DHT22;63966;47.914;22.266;2023-07-09T14:32:52;29.25;36.68
75387;DHT22;63966;47.914;22.266;2023-07-09T14:35:56;29.25;35.40
75387;DHT22;63966;47.914;22.266;2023-07-09T14:38:59;29.19;35.99
75387;DHT22;63966;47.914;22.266;2023-07-09T14:42:02;29.10;34.70
75387;DHT22;63966;47.914;22.266;2023-07-09T14:45:19;29.23;36.00
75387;DHT22;63966;47.914;22.266;2023-07-09T14:48:23;29.16;35.95
75387;DHT22;63966;47.914;22.266;2023-07-09T14:51:27;29.26;34.76
75387;DHT22;63966;47.914;22.266;2023-07-09T14:54:31;29.10;34.73
75387;DHT22;63966;47.914;22.266;2023-07-09T14:57:34;28.96;36.85
75387;DHT22;63966;47.914;22.266;2023-07-09T15:00:39;28.89;35.79
75387;DHT22;63966;47.914;22.266;2023-07-09T15:03:44;28.85;35.53
75387;DHT22;63966;47.914;22.266;2023-07-09T15:06:49;28.88;35.87
75387;DHT22;63966;47.914;22.266;2023-07-09T15:09:52;28.92;36.03
75387;DHT22;63966;47.914;22.266;2023-07-09T15:12:56;28.81;37.59
75387;DHT22;63966;47.914;22.266;2023-07-09T15:16:00;28.76;35.61
75387;DHT22;63966;47.914;22.266;2023-07-09T15:19:17;28.67;35.39
75387;DHT22;63966;47.914;22.266;2023-07-09T15:22:31;28.74;37.38
75387;DHT22;63966;47.914;22.266;2023-07-09T15:25:35;28.72;36.63
75387;DHT22;63966;47.914;22.266;2023-07-09T15:28:38;28.79;34.82
75387;DHT22;63966;47.914;22.266;2023-07-09T15:31:42;28.81;35.00
75387;DHT22;63966;47.914;22.266;2023-07-09T15:34:45;28.69;35.14
75387;DHT22;63966;47.914;22.266;2023-07-09T15:37:49;28.69;35.20
75387;DHT22;63966;47.914;22.266;2023-07-09T15:40:52;28.71;36.49
75387;DHT22;63966;47.914;22.266;2023-07-09T15:43:57;28.69;35.27
75387;DHT22;63966;47.914;22.266;2023-07-09T15:47:00;28.65;35.29
75387;DHT22;63966;47.914;22.266;2023-07-09T15:50:15;28.57;36.30
75387;DHT22;63966;47.914;22.266;2023-07-09T15:53:22;28.48;35.51
75387;DHT22;63966;47.914;22.266;2023-07-09T15:56:27;28.43;35.94
75387;DHT22;63966;47.914;22.266;2023-07-09T15:59:34;28.34;35.79
75387;DHT22;63966;47.914;22.266;2023-07-09T16:02:38;28.36;34.62
75387;DHT22;63966;47.914;22.266;2023-07-09T16:05:41;28.30;35.62
75387;DHT22;63966;47.914;22.266;2023-07-09T16:08:47;28.27;35.91
75387;DHT22;63966;47.914;22.266;2023-07-09T16:11:52;28.23;37.16
75387;DHT22;63966;47.914;22.266;2023-07-09T16:14:55;28.18;36.52
75387;DHT22;63966;47.914;22.266;2023-07-09T16:17:58;28.06;39.15
75387;DHT22;63966;47.914;22.266;2023-07-09T16:21:02;27.96;37.92
75387;DHT22;63966;47.914;22.266;2023-07-09T16:24:16;27.86;38.72
75387;DHT22;63966;47.914;22.266;2023-07-09T16:27:20;27.94;36.32
75387;DHT22;63966;47.914;22.266;2023-07-09T16:30:25;27.92;36.67
75387;DHT22;63966;47.914;22.266;2023-07-09T16:33:31;27.85;36.75
75387;DHT22;63966;47.914;22.266;2023-07-09T16:36:35;27.78;38.03
75387;DHT22;63966;47.914;22.266;2023-07-09T16:39:41;27.66;38.60
75387;DHT22;63966;47.914;22.266;2023-07-09T16:42:46;27.63;40.24
75387;DHT22;63966;47.914;22.266;2023-07-09T16:45:50;27.54;41.18
75387;DHT22;63966;47.914;22.266;2023-07-09T16:48:53;27.44;42.41
75387;DHT22;63966;47.914;22.266;2023-07-09T16:52:02;27.31;43.09
75387;DHT22;63966;47.914;22.266;2023-07-09T16:55:07;27.20;43.85
75387;DHT22;63966;47.914;22.266;2023-07-09T16:58:34;27.07;44.47
75387;DHT22;63966;47.914;22.266;2023-07-09T17:01:38;26.98;44.98
75387;DHT22;63966;47.914;22.266;2023-07-09T17:04:42;26.90;44.52
75387;DHT22;63966;47.914;22.266;2023-07-09T17:07:46;26.73;45.72
75387;DHT22;63966;47.914;22.266;2023-07-09T17:10:50;26.63;46.20
75387;DHT22;63966;47.914;22.266;2023-07-09T17:13:53;26.50;46.13
75387;DHT22;63966;47.914;22.266;2023-07-09T17:16:57;26.43;46.73
75387;DHT22;63966;47.914;22.266;2023-07-09T17:20:01;26.28;48.16
75387;DHT22;63966;47.914;22.266;2023-07-09T17:23:05;26.15;47.72
75387;DHT22;63966;47.914;22.266;2023-07-09T17:26:08;26.01;47.91
75387;DHT22;63966;47.914;22.266;2023-07-09T17:29:12;25.93;48.00
75387;DHT22;63966;47.914;22.266;2023-07-09T17:32:19;25.78;48.49
75387;DHT22;63966;47.914;22.266;2023-07-09T17:35:22;25.69;49.27
75387;DHT22;63966;47.914;22.266;2023-07-09T17:38:36;25.57;50.16
75387;DHT22;63966;47.914;22.266;2023-07-09T17:41:40;25.46;51.19
75387;DHT22;63966;47.914;22.266;2023-07-09T17:44:45;25.29;52.06
75387;DHT22;63966;47.914;22.266;2023-07-09T17:47:49;25.16;52.14
75387;DHT22;63966;47.914;22.266;2023-07-09T17:50:53;25.04;53.00
75387;DHT22;63966;47.914;22.266;2023-07-09T17:53:57;24.95;54.50
75387;DHT22;63966;47.914;22.266;2023-07-09T17:57:00;24.77;56.22
75387;DHT22;63966;47.914;22.266;2023-07-09T18:00:05;24.59;56.39
75387;DHT22;63966;47.914;22.266;2023-07-09T18:03:10;24.34;57.78
75387;DHT22;63966;47.914;22.266;2023-07-09T18:06:15;24.14;57.83
75387;DHT22;63966;47.914;22.266;2023-07-09T18:09:20;23.99;58.18
75387;DHT22;63966;47.914;22.266;2023-07-09T18:12:26;23.82;58.20
75387;DHT22;63966;47.914;22.266;2023-07-09T18:15:31;23.68;58.63
75387;DHT22;63966;47.914;22.266;2023-07-09T18:18:36;23.55;58.83
75387;DHT22;63966;47.914;22.266;2023-07-09T18:21:39;23.41;59.70
75387;DHT22;63966;47.914;22.266;2023-07-09T18:24:43;23.26;60.74
75387;DHT22;63966;47.914;22.266;2023-07-09T18:27:52;23.10;61.17
75387;DHT22;63966;47.914;22.266;2023-07-09T18:30:56;22.96;61.92
75387;DHT22;63966;47.914;22.266;2023-07-09T18:34:19;22.82;62.01
75387;DHT22;63966;47.914;22.266;2023-07-09T18:37:23;22.69;62.75
75387;DHT22;63966;47.914;22.266;2023-07-09T18:40:43;22.56;63.65
75387;DHT22;63966;47.914;22.266;2023-07-09T18:43:47;22.42;64.57
75387;DHT22;63966;47.914;22.266;2023-07-09T18:46:51;22.30;65.53
75387;DHT22;63966;47.914;22.266;2023-07-09T18:49:55;22.17;66.33
75387;DHT22;63966;47.914;22.266;2023-07-09T18:52:59;22.03;67.25
75387;DHT22;63966;47.914;22.266;2023-07-09T18:56:03;21.91;65.82
75387;DHT22;63966;47.914;22.266;2023-07-09T18:59:19;21.82;65.56
75387;DHT22;63966;47.914;22.266;2023-07-09T19:02:24;21.73;65.28
75387;DHT22;63966;47.914;22.266;2023-07-09T19:05:28;21.67;64.79
75387;DHT22;63966;47.914;22.266;2023-07-09T19:08:32;21.62;65.30
75387;DHT22;63966;47.914;22.266;2023-07-09T19:11:38;21.57;66.61
75387;DHT22;63966;47.914;22.266;2023-07-09T19:14:42;21.43;67.41
75387;DHT22;63966;47.914;22.266;2023-07-09T19:17:45;21.32;67.73
75387;DHT22;63966;47.914;22.266;2023-07-09T19:20:49;21.26;68.13
75387;DHT22;63966;47.914;22.266;2023-07-09T19:23:53;21.18;68.82
75387;DHT22;63966;47.914;22.266;2023-07-09T19:26:57;21.07;68.48
75387;DHT22;63966;47.914;22.266;2023-07-09T19:30:00;20.98;67.85
75387;DHT22;63966;47.914;22.266;2023-07-09T19:33:04;20.91;69.50
75387;DHT22;63966;47.914;22.266;2023-07-09T19:36:22;20.84;69.13
75387;DHT22;63966;47.914;22.266;2023-07-09T19:39:33;20.77;69.43
75387;DHT22;63966;47.914;22.266;2023-07-09T19:42:37;20.66;69.87
75387;DHT22;63966;47.914;22.266;2023-07-09T19:45:43;20.50;71.57
75387;DHT22;63966;47.914;22.266;2023-07-09T19:48:47;20.30;72.00
75387;DHT22;63966;47.914;22.266;2023-07-09T19:51:50;20.25;72.17
75387;DHT22;63966;47.914;22.266;2023-07-09T19:54:54;20.20;72.34
75387;DHT22;63966;47.914;22.266;2023-07-09T19:57:57;20.18;73.32
75387;DHT22;63966;47.914;22.266;2023-07-09T20:01:01;20.09;73.37